createdAt,value
2022-08-19T00:01:44.131Z,96380.38
2022-08-19T00:04:16.249Z,96395.28
2022-08-19T00:06:45.735Z,96399.06
2022-08-19T00:09:16.080Z,96421.59
2022-08-19T00:11:45.932Z,96425.84
2022-08-19T00:14:17.118Z,96427.78
2022-08-19T00:16:46.440Z,96426.91
2022-08-19T00:19:15.349Z,96434.84
2022-08-19T00:21:44.324Z,96431.75
2022-08-19T00:24:14.305Z,96441.88
2022-08-19T00:26:43.289Z,96444.97
2022-08-19T00:29:15.626Z,96441.03
2022-08-19T00:31:44.728Z,96436.00
2022-08-19T00:34:13.225Z,96442.75
2022-08-19T00:36:41.812Z,96431.06
2022-08-19T00:39:10.436Z,96430.25
2022-08-19T00:41:38.724Z,96417.75
2022-08-19T00:44:09.161Z,96403.34
2022-08-19T00:46:40.737Z,96403.72
2022-08-19T00:49:12.419Z,96413.50
2022-08-19T00:51:41.202Z,96413.13
2022-08-19T00:54:10.125Z,96409.25
2022-08-19T00:56:38.523Z,96414.72
2022-08-19T00:59:10.109Z,96403.72
2022-08-19T01:01:40.232Z,96413.19
2022-08-19T01:04:08.835Z,96397.63
2022-08-19T01:06:38.070Z,96395.94
2022-08-19T01:09:06.958Z,96385.03
2022-08-19T01:11:38.105Z,96394.47
2022-08-19T01:14:06.382Z,96394.47
2022-08-19T01:16:34.939Z,96402.69
2022-08-19T01:19:04.691Z,96417.91
2022-08-19T01:21:36.680Z,96411.13
2022-08-19T01:24:06.560Z,96421.09
2022-08-19T01:26:42.070Z,96416.72
2022-08-19T01:29:10.418Z,96419.53
2022-08-19T01:31:40.290Z,96425.22
2022-08-19T01:34:09.126Z,96427.53
2022-08-19T01:36:39.194Z,96424.34
2022-08-19T01:39:13.137Z,96428.94
2022-08-19T01:41:41.594Z,96419.19
2022-08-19T01:44:17.327Z,96422.03
2022-08-19T01:46:48.199Z,96420.34
2022-08-19T01:49:16.950Z,96423.38
2022-08-19T01:51:44.938Z,96417.13
2022-08-19T01:54:26.977Z,96417.16
2022-08-19T01:57:01.610Z,96406.66
2022-08-19T01:59:30.013Z,96411.13
2022-08-19T02:01:58.415Z,96422.75
2022-08-19T02:04:27.587Z,96434.66
2022-08-19T02:06:55.714Z,96442.13
2022-08-19T02:09:25.117Z,96461.81
2022-08-19T02:11:53.280Z,96458.72
2022-08-19T02:14:21.339Z,96460.50
2022-08-19T02:16:49.354Z,96440.38
2022-08-19T02:19:17.408Z,96433.06
2022-08-19T02:21:45.520Z,96425.53
2022-08-19T02:24:13.860Z,96420.91
2022-08-19T02:26:43.553Z,96423.72
2022-08-19T02:29:11.870Z,96431.56
2022-08-19T02:31:39.889Z,96439.41
2022-08-19T02:34:07.858Z,96438.44
2022-08-19T02:36:35.909Z,96422.78
2022-08-19T02:39:03.149Z,96425.88
2022-08-19T02:41:33.610Z,96425.94
2022-08-19T02:44:22.958Z,96428.59
2022-08-19T02:46:53.204Z,96430.69
2022-08-19T02:49:21.681Z,96434.91
2022-08-19T02:51:49.665Z,96439.91
2022-08-19T02:54:18.259Z,96440.63
2022-08-19T02:56:47.356Z,96445.69
2022-08-19T02:59:16.739Z,96433.50
2022-08-19T03:01:44.852Z,96421.44
2022-08-19T03:04:16.613Z,96413.16
2022-08-19T03:06:47.547Z,96411.31
2022-08-19T03:09:16.678Z,96417.13
2022-08-19T03:11:44.752Z,96417.22
2022-08-19T03:14:13.812Z,96420.63
2022-08-19T03:16:47.087Z,96415.72
2022-08-19T03:19:16.303Z,96409.72
2022-08-19T03:21:45.899Z,96411.84
2022-08-19T03:24:15.551Z,96414.16
2022-08-19T03:26:45.423Z,96422.66
2022-08-19T03:29:13.586Z,96414.94
2022-08-19T03:31:52.704Z,96420.41
2022-08-19T03:34:24.076Z,96432.19
2022-08-19T03:36:52.048Z,96437.63
2022-08-19T03:39:20.052Z,96437.59
2022-08-19T03:41:49.992Z,96430.16
2022-08-19T03:44:38.624Z,96423.66
2022-08-19T03:47:08.545Z,96433.88
2022-08-19T03:49:37.575Z,96430.00
2022-08-19T03:52:08.545Z,96445.63
2022-08-19T03:54:37.282Z,96457.31
2022-08-19T03:57:05.798Z,96455.72
2022-08-19T03:59:35.465Z,96463.56
2022-08-19T04:02:09.973Z,96459.53
2022-08-19T04:04:40.876Z,96466.66
2022-08-19T04:07:10.399Z,96462.06
2022-08-19T04:09:39.008Z,96464.41
2022-08-19T04:12:07.934Z,96455.00
2022-08-19T04:14:36.827Z,96461.88
2022-08-19T04:17:06.427Z,96457.22
2022-08-19T04:19:35.290Z,96463.50
2022-08-19T04:22:05.494Z,96462.00
2022-08-19T04:24:33.740Z,96453.50
2022-08-19T04:27:02.999Z,96451.94
2022-08-19T04:29:31.643Z,96460.41
2022-08-19T04:32:00.406Z,96458.63
2022-08-19T04:35:01.161Z,96453.47
2022-08-19T04:37:35.106Z,96438.03
2022-08-19T04:40:24.554Z,96424.88
2022-08-19T04:42:52.725Z,96454.22
2022-08-19T04:45:23.114Z,96465.19
2022-08-19T04:47:57.856Z,96473.78
2022-08-19T04:50:26.740Z,96481.25
2022-08-19T04:52:56.497Z,96491.78
2022-08-19T04:55:26.406Z,96487.16
2022-08-19T04:57:54.493Z,96487.97
2022-08-19T05:00:22.539Z,96492.66
2022-08-19T05:02:50.543Z,96489.53
2022-08-19T05:05:19.298Z,96488.78
2022-08-19T05:07:47.342Z,96501.28
2022-08-19T05:10:16.680Z,96499.75
2022-08-19T05:12:44.708Z,96502.09
2022-08-19T05:15:13.020Z,96507.97
2022-08-19T05:18:02.187Z,96505.25
2022-08-19T05:20:47.965Z,96503.66
2022-08-19T05:23:21.863Z,96504.09
2022-08-19T05:25:52.602Z,96511.47
2022-08-19T05:28:21.061Z,96507.53
2022-08-19T05:30:49.135Z,96509.78
2022-08-19T05:33:17.148Z,96509.47
2022-08-19T05:35:45.403Z,96500.53
2022-08-19T05:38:13.669Z,96510.72
2022-08-19T05:40:42.540Z,96504.47
2022-08-19T05:43:11.876Z,96509.13
2022-08-19T05:45:41.366Z,96507.16
2022-08-19T05:48:12.022Z,96493.50
2022-08-19T05:50:40.971Z,96498.97
2022-08-19T05:53:09.764Z,96494.25
2022-08-19T05:55:39.197Z,96502.06
2022-08-19T05:58:08.470Z,96493.50
2022-08-19T06:00:38.573Z,96492.34
2022-08-19T06:03:12.724Z,96489.63
2022-08-19T06:05:51.378Z,96496.63
2022-08-19T06:08:33.955Z,96491.16
2022-08-19T06:11:18.784Z,96489.63
2022-08-19T06:13:48.559Z,96479.44
2022-08-19T06:16:21.833Z,96488.00
2022-08-19T06:18:52.544Z,96491.16
2022-08-19T06:21:21.221Z,96494.25
2022-08-19T06:23:49.554Z,96499.72
2022-08-19T06:26:18.285Z,96504.00
2022-08-19T06:28:47.368Z,96506.75
2022-08-19T06:31:17.514Z,96510.63
2022-08-19T06:33:46.949Z,96505.94
2022-08-19T06:36:20.036Z,96514.13
2022-08-19T06:38:48.071Z,96511.41
2022-08-19T06:41:16.099Z,96516.88
2022-08-19T06:43:44.832Z,96509.03
2022-08-19T06:46:15.524Z,96498.81
2022-08-19T06:48:45.861Z,96493.28
2022-08-19T06:51:16.672Z,96496.41
2022-08-19T06:53:47.960Z,96503.47
2022-08-19T06:56:18.188Z,96505.81
2022-08-19T06:58:46.588Z,96517.53
2022-08-19T07:01:14.922Z,96514.38
2022-08-19T07:03:42.992Z,96519.84
2022-08-19T07:06:32.665Z,96520.59
2022-08-19T07:09:05.098Z,96518.88
2022-08-19T07:11:34.546Z,96514.88
2022-08-19T07:14:02.722Z,96523.53
2022-08-19T07:16:31.390Z,96519.69
2022-08-19T07:19:00.381Z,96521.72
2022-08-19T07:21:42.562Z,96525.66
2022-08-19T07:24:11.014Z,96524.53
2022-08-19T07:26:42.203Z,96517.53
2022-08-19T07:29:10.760Z,96519.09
2022-08-19T07:31:39.377Z,96501.16
2022-08-19T07:34:12.500Z,96499.59
2022-08-19T07:36:43.474Z,96502.69
2022-08-19T07:39:14.997Z,96512.91
2022-08-19T07:41:43.268Z,96504.34
2022-08-19T07:44:13.423Z,96497.31
2022-08-19T07:46:46.488Z,96491.94
2022-08-19T07:49:20.143Z,96493.53
2022-08-19T07:51:51.779Z,96484.59
2022-08-19T07:54:20.936Z,96482.66
2022-08-19T07:56:49.020Z,96481.97
2022-08-19T07:59:21.469Z,96475.72
2022-08-19T08:01:51.101Z,96470.28
2022-08-19T08:04:37.341Z,96468.78
2022-08-19T08:07:25.140Z,96457.53
2022-08-19T08:10:03.328Z,96456.34
2022-08-19T08:12:35.520Z,96451.63
2022-08-19T08:15:12.485Z,96461.06
2022-08-19T08:17:49.651Z,96458.78
2022-08-19T08:20:20.757Z,96455.69
2022-08-19T08:23:08.009Z,96454.13
2022-08-19T08:25:37.382Z,96442.44
2022-08-19T08:28:06.386Z,96438.53
2022-08-19T08:30:36.824Z,96440.94
2022-08-19T08:33:06.199Z,96444.09
2022-08-19T08:35:34.569Z,96459.00
2022-08-19T08:38:05.324Z,96463.69
2022-08-19T08:40:40.581Z,96464.88
2022-08-19T08:43:11.647Z,96478.16
2022-08-19T08:45:45.869Z,96485.63
2022-08-19T08:48:25.482Z,96483.63
2022-08-19T08:50:57.062Z,96487.94
2022-08-19T08:53:31.192Z,96494.25
2022-08-19T08:56:01.416Z,96492.72
2022-08-19T08:58:44.267Z,96500.53
2022-08-19T09:01:13.332Z,96509.91
2022-08-19T09:03:44.078Z,96515.38
2022-08-19T09:06:17.021Z,96523.22
2022-08-19T09:08:56.649Z,96524.78
2022-08-19T09:11:42.610Z,96519.69
2022-08-19T09:14:47.269Z,96521.59
2022-08-19T09:17:11.471Z,96530.19
2022-08-19T09:19:51.850Z,96525.50
2022-08-19T09:22:25.751Z,96530.97
2022-08-19T09:24:56.764Z,96528.19
2022-08-19T09:27:35.424Z,96525.44
2022-08-19T09:30:14.842Z,96533.22
2022-08-19T09:32:44.341Z,96526.94
2022-08-19T09:35:13.871Z,96526.47
2022-08-19T09:37:42.150Z,96525.31
2022-08-19T09:40:14.261Z,96517.88
2022-08-19T09:42:49.649Z,96519.84
2022-08-19T09:45:19.262Z,96521.31
2022-08-19T09:47:47.808Z,96519.56
2022-08-19T09:50:16.807Z,96508.16
2022-08-19T09:52:55.284Z,96515.28
2022-08-19T09:55:34.313Z,96522.78
2022-08-19T09:58:39.212Z,96519.72
2022-08-19T10:02:38.699Z,96517.38
2022-08-19T10:05:30.486Z,96529.97
2022-08-19T10:08:02.002Z,96535.88
2022-08-19T11:07:36.598Z,96522.31
2022-08-19T11:14:55.519Z,96504.00
2022-08-19T11:17:24.514Z,96500.88
2022-08-19T11:19:52.633Z,96493.13
2022-08-19T11:22:20.957Z,96504.13
2022-08-19T11:24:48.949Z,96505.75
2022-08-19T11:27:17.969Z,96501.84
2022-08-19T11:29:45.958Z,96490.88
2022-08-19T11:32:16.550Z,96506.94
2022-08-19T11:34:44.520Z,96504.22
2022-08-19T11:37:12.677Z,96494.84
2022-08-19T11:39:42.660Z,96487.00
2022-08-19T11:42:24.645Z,96489.00
2022-08-19T11:44:54.904Z,96484.66
2022-08-19T11:47:24.396Z,96483.50
2022-08-19T11:49:52.715Z,96481.91
2022-08-19T11:52:20.777Z,96484.66
2022-08-19T11:54:48.761Z,96474.44
2022-08-19T11:57:18.037Z,96476.03
2022-08-19T11:59:50.849Z,96478.78
2022-08-19T12:02:20.044Z,96479.19
2022-08-19T12:04:49.461Z,96485.38
2022-08-19T12:07:17.717Z,96474.38
2022-08-19T12:09:45.926Z,96490.03
2022-08-19T12:12:17.045Z,96483.00
2022-08-19T12:14:47.505Z,96477.19
2022-08-19T12:17:15.607Z,96477.56
2022-08-19T12:19:43.702Z,96481.50
2022-08-19T12:22:13.436Z,96489.28
2022-08-19T12:24:41.542Z,96483.00
2022-08-19T12:27:12.971Z,96493.16
2022-08-19T12:29:41.942Z,96487.28
2022-08-19T12:32:10.438Z,96489.25
2022-08-19T12:34:40.766Z,96493.94
2022-08-19T12:37:09.443Z,96493.81
2022-08-19T12:39:42.467Z,96489.13
2022-08-19T12:42:11.439Z,96485.22
2022-08-19T12:44:41.725Z,96489.53
2022-08-19T12:47:12.478Z,96493.81
2022-08-19T12:49:53.573Z,96492.63
2022-08-19T12:52:25.376Z,96505.16
2022-08-19T12:54:56.899Z,96511.00
2022-08-19T12:57:31.917Z,96508.13
2022-08-19T13:00:05.449Z,96510.94
2022-08-19T13:02:38.804Z,96516.06
2022-08-19T13:05:10.268Z,96531.28
2022-08-19T13:07:39.524Z,96527.38
2022-08-19T13:10:12.077Z,96531.69
2022-08-19T13:12:41.969Z,96535.22
2022-08-19T13:15:11.485Z,96529.66
2022-08-19T13:17:41.500Z,96535.91
2022-08-19T13:20:11.572Z,96519.69
2022-08-19T13:22:39.680Z,96514.84
2022-08-19T13:25:10.445Z,96515.66
2022-08-19T13:27:39.032Z,96512.13
2022-08-19T13:30:26.765Z,96513.06
2022-08-19T13:33:17.627Z,96518.47
2022-08-19T13:35:48.815Z,96520.56
2022-08-19T13:38:19.036Z,96519.78
2022-08-19T13:40:51.280Z,96515.16
2022-08-19T13:43:23.290Z,96516.06
2022-08-19T13:45:53.633Z,96509.91
2022-08-19T13:48:21.929Z,96514.69
2022-08-19T13:50:50.483Z,96513.97
2022-08-19T13:53:19.433Z,96513.16
2022-08-19T13:55:49.656Z,96512.44
2022-08-19T13:58:17.762Z,96513.28
2022-08-19T14:00:48.597Z,96505.50
2022-08-19T14:03:17.126Z,96507.88
2022-08-19T14:05:45.171Z,96507.91
2022-08-19T14:08:13.312Z,96498.94
2022-08-19T14:10:41.849Z,96508.81
2022-08-19T14:13:11.235Z,96494.63
2022-08-19T14:15:39.887Z,96493.03
2022-08-19T14:18:08.096Z,96484.47
2022-08-19T14:20:36.251Z,96484.53
2022-08-19T14:23:06.131Z,96484.91
2022-08-19T14:25:35.194Z,96488.38
2022-08-19T14:28:04.093Z,96491.56
2022-08-19T14:30:35.557Z,96500.22
2022-08-19T14:33:04.038Z,96502.59
2022-08-19T14:35:35.685Z,96498.28
2022-08-19T14:38:05.805Z,96504.56
2022-08-19T14:40:34.259Z,96494.78
2022-08-19T14:43:05.448Z,96488.91
2022-08-19T14:45:37.484Z,96485.41
2022-08-19T14:48:05.748Z,96494.03
2022-08-19T14:50:34.298Z,96496.00
2022-08-19T14:53:11.954Z,96497.13
2022-08-19T14:55:44.275Z,96495.19
2022-08-19T14:58:28.805Z,96491.28
2022-08-19T15:01:01.081Z,96500.31
2022-08-19T15:03:29.619Z,96493.28
2022-08-19T15:05:58.677Z,96493.31
2022-08-19T15:08:27.677Z,96490.13
2022-08-19T15:10:57.112Z,96492.09
2022-08-19T15:13:26.119Z,96491.72
2022-08-19T15:15:54.785Z,96487.41
2022-08-19T15:18:24.118Z,96498.38
2022-08-19T15:20:52.381Z,96496.81
2022-08-19T15:23:21.245Z,96501.50
2022-08-19T15:25:52.960Z,96495.66
2022-08-19T15:28:21.217Z,96494.47
2022-08-19T15:30:50.981Z,96502.69
2022-08-19T15:33:21.003Z,96497.19
2022-08-19T15:35:51.943Z,96503.47
2022-08-19T15:38:22.355Z,96501.13
2022-08-19T15:40:51.231Z,96502.69
2022-08-19T15:43:21.759Z,96504.28
2022-08-19T15:45:49.870Z,96511.31
2022-08-19T15:48:17.844Z,96515.22
2022-08-19T15:50:45.849Z,96515.25
2022-08-19T15:53:15.310Z,96517.97
2022-08-19T15:55:45.620Z,96511.66
2022-08-19T15:58:33.183Z,96523.03
2022-08-19T16:01:21.315Z,96520.66
2022-08-19T16:04:14.053Z,96522.16
2022-08-19T16:06:45.381Z,96519.81
2022-08-19T16:09:15.772Z,96516.50
2022-08-19T16:11:45.824Z,96516.53
2022-08-19T16:14:15.542Z,96514.16
2022-08-19T16:16:47.054Z,96513.44
2022-08-19T16:19:17.031Z,96515.06
2022-08-19T16:21:46.191Z,96525.25
2022-08-19T16:24:18.067Z,96523.59
2022-08-19T16:26:46.586Z,96527.50
2022-08-19T16:29:15.641Z,96534.47
2022-08-19T16:32:02.866Z,96539.94
2022-08-19T16:34:31.769Z,96543.81
2022-08-19T16:37:01.725Z,96545.34
2022-08-19T16:39:31.183Z,96546.47
2022-08-19T16:41:59.653Z,96557.63
2022-08-19T16:44:29.921Z,96554.13
2022-08-19T16:46:59.556Z,96564.09
2022-08-19T16:49:54.227Z,96567.63
2022-08-19T16:52:16.324Z,96567.69
2022-08-19T16:54:45.794Z,96577.81
2022-08-19T16:57:14.089Z,96566.75
2022-08-19T16:59:43.774Z,96576.84
2022-08-19T17:02:17.779Z,96571.56
2022-08-19T17:04:55.680Z,96579.13
2022-08-19T17:07:27.579Z,96577.59
2022-08-19T17:09:57.710Z,96585.28
2022-08-19T17:12:30.385Z,96589.94
2022-08-19T17:15:00.727Z,96593.72
2022-08-19T17:17:29.543Z,96590.09
2022-08-19T17:19:57.781Z,96598.47
2022-08-19T17:22:25.892Z,96599.78
2022-08-19T17:24:54.056Z,96596.59
2022-08-19T17:27:26.439Z,96596.69
2022-08-19T17:29:54.580Z,96598.97
2022-08-19T17:32:25.028Z,96614.84
2022-08-19T17:34:54.199Z,96617.25
2022-08-19T17:37:22.375Z,96620.72
2022-08-19T17:39:50.494Z,96621.72
2022-08-19T17:42:18.542Z,96624.56
2022-08-19T17:44:50.572Z,96623.38
2022-08-19T17:47:19.450Z,96631.69
2022-08-19T17:49:48.364Z,96625.13
2022-08-19T17:52:16.639Z,96628.66
2022-08-19T17:54:44.623Z,96628.13
2022-08-19T17:57:14.088Z,96631.13
2022-08-19T17:59:42.141Z,96626.53
2022-08-19T18:02:12.368Z,96632.25
2022-08-19T18:04:40.520Z,96632.81
2022-08-19T18:07:08.553Z,96635.69
2022-08-19T18:09:41.559Z,96632.94
2022-08-19T18:12:12.018Z,96636.75
2022-08-19T18:14:40.793Z,96638.63
2022-08-19T18:17:12.470Z,96644.91
2022-08-19T18:19:43.275Z,96657.25
2022-08-19T18:22:13.628Z,96655.25
2022-08-19T18:24:46.058Z,96655.50
2022-08-19T18:27:14.467Z,96655.94
2022-08-19T18:29:43.341Z,96660.88
2022-08-19T18:32:13.730Z,96656.44
2022-08-19T18:34:42.802Z,96656.03
2022-08-19T18:37:11.018Z,96655.16
2022-08-19T18:39:56.148Z,96668.13
2022-08-19T18:42:42.130Z,96675.75
2022-08-19T18:45:28.325Z,96671.75
2022-08-19T18:48:26.759Z,96674.03
2022-08-19T18:50:57.692Z,96668.16
2022-08-19T18:53:26.212Z,96673.88
2022-08-19T18:55:55.277Z,96680.91
2022-08-19T18:58:26.349Z,96678.34
2022-08-19T19:00:57.365Z,96679.00
2022-08-19T19:03:27.723Z,96669.03
2022-08-19T19:05:55.946Z,96672.44
2022-08-19T19:08:27.165Z,96668.72
2022-08-19T19:10:57.050Z,96682.78
2022-08-19T19:13:25.067Z,96673.31
2022-08-19T19:15:54.453Z,96667.09
2022-08-19T19:18:22.472Z,96681.84
2022-08-19T19:20:51.890Z,96672.03
2022-08-19T19:23:20.631Z,96672.19
2022-08-19T19:25:51.131Z,96674.47
2022-08-19T19:28:25.685Z,96675.03
2022-08-19T19:30:54.457Z,96690.94
2022-08-19T19:33:22.559Z,96677.41
2022-08-19T19:35:51.865Z,96676.00
2022-08-19T19:38:19.901Z,96690.25
2022-08-19T19:40:47.911Z,96692.53
2022-08-19T19:43:18.392Z,96690.09
2022-08-19T19:45:47.538Z,96696.03
2022-08-19T19:48:16.343Z,96702.44
2022-08-19T19:50:45.687Z,96708.34
2022-08-19T19:53:15.682Z,96708.00
2022-08-19T19:55:43.873Z,96699.75
2022-08-19T19:58:11.960Z,96701.38
2022-08-19T20:00:40.122Z,96705.41
2022-08-19T20:03:08.153Z,96707.94
2022-08-19T20:05:36.247Z,96713.16
2022-08-19T20:08:22.035Z,96724.69
2022-08-19T20:10:51.384Z,96717.31
2022-08-19T20:13:19.485Z,96721.88
2022-08-19T20:15:47.521Z,96719.16
2022-08-19T20:18:15.639Z,96728.22
2022-08-19T20:20:45.010Z,96730.59
2022-08-19T20:23:13.395Z,96729.63
2022-08-19T20:25:42.059Z,96735.19
2022-08-19T20:28:12.454Z,96737.41
2022-08-19T20:30:43.769Z,96741.94
2022-08-19T20:33:14.807Z,96736.59
2022-08-19T20:35:44.093Z,96735.97
2022-08-19T20:38:12.198Z,96737.13
2022-08-19T20:40:41.192Z,96736.16
2022-08-19T20:43:12.356Z,96741.50
2022-08-19T20:45:40.771Z,96740.56
2022-08-19T20:48:10.592Z,96742.84
2022-08-19T20:50:38.709Z,96732.34
2022-08-19T20:53:14.103Z,96730.31
2022-08-19T20:55:44.349Z,96743.81
2022-08-19T20:58:14.646Z,96733.34
2022-08-19T21:00:45.581Z,96739.84
2022-08-19T21:03:14.463Z,96733.88
2022-08-19T21:05:42.486Z,96737.59
2022-08-19T21:08:10.974Z,96742.31
2022-08-19T21:10:42.282Z,96745.66
2022-08-19T21:13:10.573Z,96739.41
2022-08-19T21:15:43.127Z,96747.59
2022-08-19T21:18:12.269Z,96751.03
2022-08-19T21:20:41.263Z,96747.59
2022-08-19T21:23:11.903Z,96755.75
2022-08-19T21:25:40.894Z,96744.53
2022-08-19T21:28:11.718Z,96754.25
2022-08-19T21:30:46.154Z,96751.53
2022-08-19T21:33:14.210Z,96764.59
2022-08-19T21:35:42.495Z,96767.50
2022-08-19T21:38:10.470Z,96765.91
2022-08-19T21:40:38.540Z,96758.28
2022-08-19T21:43:06.729Z,96769.06
2022-08-19T21:45:34.846Z,96776.59
2022-08-19T21:48:04.824Z,96777.38
2022-08-19T21:50:33.487Z,96770.94
2022-08-19T21:53:02.116Z,96770.34
2022-08-19T21:55:30.358Z,96773.72
2022-08-19T21:58:00.229Z,96773.09
2022-08-19T22:00:30.365Z,96774.94
2022-08-19T22:03:01.313Z,96774.25
2022-08-19T22:05:31.364Z,96778.28
2022-08-19T22:08:00.562Z,96781.94
2022-08-19T22:10:32.140Z,96791.25
2022-08-19T22:13:00.587Z,96782.94
2022-08-19T22:15:29.180Z,96796.91
2022-08-19T22:17:58.418Z,96796.03
2022-08-19T22:20:28.705Z,96806.44
2022-08-19T22:23:00.276Z,96807.47
2022-08-19T22:25:31.892Z,96801.91
2022-08-19T22:28:01.568Z,96800.88
2022-08-19T22:30:33.303Z,96796.25
2022-08-19T22:33:04.484Z,96801.66
2022-08-19T22:35:37.561Z,96806.97
2022-08-19T22:38:08.102Z,96809.91
2022-08-19T22:40:39.608Z,96812.19
2022-08-19T22:43:10.115Z,96819.09
2022-08-19T22:45:38.138Z,96823.41
2022-08-19T22:48:07.843Z,96826.91
2022-08-19T22:50:36.212Z,96829.72
2022-08-19T22:53:04.528Z,96844.25
2022-08-19T22:55:35.215Z,96841.75
2022-08-19T22:58:03.248Z,96836.09
2022-08-19T23:00:31.963Z,96833.00
2022-08-19T23:03:01.597Z,96841.63
2022-08-19T23:05:30.416Z,96850.00
2022-08-19T23:07:59.490Z,96846.03
2022-08-19T23:10:28.977Z,96846.72
2022-08-19T23:12:59.742Z,96841.28
2022-08-19T23:15:29.842Z,96851.03
2022-08-19T23:18:01.400Z,96841.03
2022-08-19T23:20:32.942Z,96843.06
2022-08-19T23:23:02.772Z,96845.34
2022-08-19T23:25:32.711Z,96842.50
2022-08-19T23:28:19.952Z,96846.34
2022-08-19T23:30:49.644Z,96846.34
2022-08-19T23:33:21.660Z,96848.84
2022-08-19T23:35:51.772Z,96848.16
2022-08-19T23:38:22.719Z,96849.59
2022-08-19T23:40:51.542Z,96850.03
2022-08-19T23:43:25.017Z,96849.69
2022-08-19T23:45:57.474Z,96846.19
2022-08-19T23:48:26.077Z,96843.72
2022-08-19T23:50:57.510Z,96839.63
2022-08-19T23:53:25.685Z,96844.88
2022-08-19T23:55:54.168Z,96845.25
2022-08-19T23:58:23.805Z,96838.06
